Ribe, Denmark
Current Conditions -  °F | °C
As of 4:20 AM on Sunday 23 Nov 2014 (Local Time) from EKEB Reporting Station
Drizzle Drizzle  
Wind Chill: 39°   Ceiling: 1400
Heat Index: 43°   Visibility: 3mi
Dew Point: 39°   Wind: 7mph
Humidity: 87%   Direction: 120°ESE
Pressure: 30.09"   Gusts: NA
Location:  55.33°N, 8.76°E
Report Text: EKEB 230320Z AUTO 12006KT 5000NDV DZ BKN014/// OVC022///06/04 Q1019
Loading
Personal Weather Stations






























Interactive Weather Map New forecast layout! Learn more

10-Day Weather Forecast

Advertisements
Track Severe Weather on mobile